LiveATC.Net - Listen to live air traffic control over the Internet!


ICAO: W73  IATA: W73   Airport: Mid Atlantic Soaring Center Airport
City: Fairfield   State/Province: Pennsylvania
Country: United States   Continent: North America
KHGR METAR Weather: KHGR 231153Z 00000KT 10SM CLR M04/M15 A3060 RMK AO2 SLP379 T10391150 11011 21050 51020
W73 Flight Activity (FlightAware)
W73 CTAF
Feed Status: UP   Listeners: 0
Listen right in your browser - requires Flash (in browser, requires Flash)
Click here to listen with your own player (launches your MP3 player)
W73 CTAF Audio Archives
FacilityFrequency
Fairfield CTAF123.300

Feed sponsored by: Mid-Atlantic Soaring Club

NOTICE

Unauthorized use prohibited. See LiveATC.net Terms of Service


Find LiveATC Audio Streams


Airport/ARTCC Code

Frequency Search
(e.g., 124.400, 128.75)
Site-wide search
 


Browse LiveATC Feeds
LiveATC Coverage Map
Top 50 LiveATC Feeds
Bad Weather Areas

LiveATC FAQ
Offer a LiveATC Feed
Contact LiveATC.net
Press Inquiries

LiveATC on iPhone
LiveATC on Android

Windows Phone
Windows 8/10

LiveATC Mobile
(Mobile browser)

ATC Audio Archives
Interesting Recordings

LiveATC Forums


Home Page
About LiveATC.net
Make a Donation
LiveATC Store

Terms of Use
Privacy Policy

Canadian Air Freqs

AIRMETs/SIGMETs

FAA Airport Status
Nat'l Airspace Status
Arrival Demand Charts


Server Software By:
Icecast.org
Liquidsoap